sensor_id;sensor_type;location;lat;lon;timestamp;P1;durP1;ratioP1;P2;durP2;ratioP2
2211;SDS011;48849;48.758;9.158;2023-02-10T00:01:06;40.40;;;23.55;;
2211;SDS011;48849;48.758;9.158;2023-02-10T00:03:35;33.10;;;22.20;;
2211;SDS011;48849;48.758;9.158;2023-02-10T00:06:02;33.45;;;22.88;;
2211;SDS011;48849;48.758;9.158;2023-02-10T00:08:31;37.47;;;23.65;;
2211;SDS011;48849;48.758;9.158;2023-02-10T00:10:58;38.63;;;24.17;;
2211;SDS011;48849;48.758;9.158;2023-02-10T00:13:26;33.95;;;22.15;;
2211;SDS011;48849;48.758;9.158;2023-02-10T00:15:53;36.67;;;22.40;;
2211;SDS011;48849;48.758;9.158;2023-02-10T00:18:20;37.50;;;23.17;;
2211;SDS011;48849;48.758;9.158;2023-02-10T00:20:47;33.17;;;21.58;;
2211;SDS011;48849;48.758;9.158;2023-02-10T00:23:13;35.13;;;22.52;;
2211;SDS011;48849;48.758;9.158;2023-02-10T00:25:42;33.25;;;21.98;;
2211;SDS011;48849;48.758;9.158;2023-02-10T00:28:08;35.00;;;24.02;;
2211;SDS011;48849;48.758;9.158;2023-02-10T00:30:35;32.83;;;22.98;;
2211;SDS011;48849;48.758;9.158;2023-02-10T00:33:03;38.40;;;23.02;;
2211;SDS011;48849;48.758;9.158;2023-02-10T00:35:30;34.45;;;22.83;;
2211;SDS011;48849;48.758;9.158;2023-02-10T00:37:57;33.15;;;23.00;;
2211;SDS011;48849;48.758;9.158;2023-02-10T00:40:23;34.20;;;22.77;;
2211;SDS011;48849;48.758;9.158;2023-02-10T00:42:51;37.00;;;23.63;;
2211;SDS011;48849;48.758;9.158;2023-02-10T00:45:18;35.35;;;23.33;;
2211;SDS011;48849;48.758;9.158;2023-02-10T00:47:45;30.50;;;21.58;;
2211;SDS011;48849;48.758;9.158;2023-02-10T00:50:14;35.72;;;23.55;;
2211;SDS011;48849;48.758;9.158;2023-02-10T00:52:40;37.60;;;23.92;;
2211;SDS011;48849;48.758;9.158;2023-02-10T00:55:07;33.78;;;24.02;;
2211;SDS011;48849;48.758;9.158;2023-02-10T00:57:34;37.63;;;24.02;;
2211;SDS011;48849;48.758;9.158;2023-02-10T01:00:02;39.72;;;24.13;;
2211;SDS011;48849;48.758;9.158;2023-02-10T01:02:30;35.35;;;23.98;;
2211;SDS011;48849;48.758;9.158;2023-02-10T01:04:57;36.30;;;23.65;;
2211;SDS011;48849;48.758;9.158;2023-02-10T01:07:24;31.67;;;21.25;;
2211;SDS011;48849;48.758;9.158;2023-02-10T01:09:51;34.20;;;21.77;;
2211;SDS011;48849;48.758;9.158;2023-02-10T01:12:17;33.28;;;21.95;;
2211;SDS011;48849;48.758;9.158;2023-02-10T01:14:44;33.90;;;24.27;;
2211;SDS011;48849;48.758;9.158;2023-02-10T01:17:12;35.42;;;24.88;;
2211;SDS011;48849;48.758;9.158;2023-02-10T01:19:39;38.42;;;23.38;;
2211;SDS011;48849;48.758;9.158;2023-02-10T01:22:05;36.25;;;24.80;;
2211;SDS011;48849;48.758;9.158;2023-02-10T01:24:32;37.42;;;23.15;;
2211;SDS011;48849;48.758;9.158;2023-02-10T01:26:59;32.72;;;23.70;;
2211;SDS011;48849;48.758;9.158;2023-02-10T01:29:25;34.50;;;23.35;;
2211;SDS011;48849;48.758;9.158;2023-02-10T01:31:52;32.42;;;22.15;;
2211;SDS011;48849;48.758;9.158;2023-02-10T01:34:20;33.70;;;21.35;;
2211;SDS011;48849;48.758;9.158;2023-02-10T01:36:46;31.13;;;21.05;;
2211;SDS011;48849;48.758;9.158;2023-02-10T01:39:13;36.50;;;21.58;;
2211;SDS011;48849;48.758;9.158;2023-02-10T01:41:41;34.78;;;23.15;;
2211;SDS011;48849;48.758;9.158;2023-02-10T01:47:04;34.08;;;22.60;;
2211;SDS011;48849;48.758;9.158;2023-02-10T01:49:33;38.40;;;25.98;;
2211;SDS011;48849;48.758;9.158;2023-02-10T01:52:05;36.72;;;22.50;;
2211;SDS011;48849;48.758;9.158;2023-02-10T01:54:37;37.40;;;24.65;;
2211;SDS011;48849;48.758;9.158;2023-02-10T01:57:06;44.55;;;25.77;;
2211;SDS011;48849;48.758;9.158;2023-02-10T01:59:35;37.40;;;23.98;;
2211;SDS011;48849;48.758;9.158;2023-02-10T02:02:04;38.67;;;24.23;;
2211;SDS011;48849;48.758;9.158;2023-02-10T02:04:34;38.85;;;25.13;;
2211;SDS011;48849;48.758;9.158;2023-02-10T02:07:01;41.80;;;25.48;;
2211;SDS011;48849;48.758;9.158;2023-02-10T02:09:28;35.05;;;22.77;;
2211;SDS011;48849;48.758;9.158;2023-02-10T02:11:57;32.60;;;22.73;;
2211;SDS011;48849;48.758;9.158;2023-02-10T02:14:31;32.80;;;23.10;;
2211;SDS011;48849;48.758;9.158;2023-02-10T02:17:06;35.05;;;23.30;;
2211;SDS011;48849;48.758;9.158;2023-02-10T02:23:06;34.10;;;23.48;;
2211;SDS011;48849;48.758;9.158;2023-02-10T02:25:42;35.00;;;23.25;;
2211;SDS011;48849;48.758;9.158;2023-02-10T02:28:32;34.10;;;23.10;;
2211;SDS011;48849;48.758;9.158;2023-02-10T02:31:09;37.38;;;24.05;;
2211;SDS011;48849;48.758;9.158;2023-02-10T02:33:51;34.08;;;23.25;;
2211;SDS011;48849;48.758;9.158;2023-02-10T02:36:22;37.20;;;23.75;;
2211;SDS011;48849;48.758;9.158;2023-02-10T02:38:58;34.08;;;23.98;;
2211;SDS011;48849;48.758;9.158;2023-02-10T02:41:26;35.15;;;23.42;;
2211;SDS011;48849;48.758;9.158;2023-02-10T02:43:53;38.92;;;23.75;;
2211;SDS011;48849;48.758;9.158;2023-02-10T02:46:26;33.55;;;23.55;;
2211;SDS011;48849;48.758;9.158;2023-02-10T02:49:03;37.60;;;23.30;;
2211;SDS011;48849;48.758;9.158;2023-02-10T02:51:39;41.00;;;25.10;;
2211;SDS011;48849;48.758;9.158;2023-02-10T02:54:14;39.13;;;24.13;;
2211;SDS011;48849;48.758;9.158;2023-02-10T02:56:47;38.20;;;24.27;;
2211;SDS011;48849;48.758;9.158;2023-02-10T03:02:25;39.55;;;24.63;;
2211;SDS011;48849;48.758;9.158;2023-02-10T03:04:55;39.72;;;23.88;;
2211;SDS011;48849;48.758;9.158;2023-02-10T03:07:22;41.78;;;24.75;;
2211;SDS011;48849;48.758;9.158;2023-02-10T03:09:48;34.90;;;24.35;;
2211;SDS011;48849;48.758;9.158;2023-02-10T03:12:15;37.03;;;23.42;;
2211;SDS011;48849;48.758;9.158;2023-02-10T03:14:42;35.22;;;23.77;;
2211;SDS011;48849;48.758;9.158;2023-02-10T03:17:08;36.88;;;24.13;;
2211;SDS011;48849;48.758;9.158;2023-02-10T03:19:35;35.70;;;24.63;;
2211;SDS011;48849;48.758;9.158;2023-02-10T03:22:03;36.00;;;24.48;;
2211;SDS011;48849;48.758;9.158;2023-02-10T03:24:30;35.20;;;23.90;;
2211;SDS011;48849;48.758;9.158;2023-02-10T03:26:57;43.92;;;25.95;;
2211;SDS011;48849;48.758;9.158;2023-02-10T03:29:23;39.70;;;24.25;;
2211;SDS011;48849;48.758;9.158;2023-02-10T03:31:50;35.88;;;23.30;;
2211;SDS011;48849;48.758;9.158;2023-02-10T03:34:17;39.47;;;24.77;;
2211;SDS011;48849;48.758;9.158;2023-02-10T03:36:43;38.20;;;24.42;;
2211;SDS011;48849;48.758;9.158;2023-02-10T03:39:11;39.53;;;26.58;;
2211;SDS011;48849;48.758;9.158;2023-02-10T03:41:38;33.97;;;23.08;;
2211;SDS011;48849;48.758;9.158;2023-02-10T03:44:05;36.13;;;23.17;;
2211;SDS011;48849;48.758;9.158;2023-02-10T03:46:31;33.85;;;22.83;;
2211;SDS011;48849;48.758;9.158;2023-02-10T03:48:58;36.63;;;23.05;;
2211;SDS011;48849;48.758;9.158;2023-02-10T03:51:25;37.88;;;23.35;;
2211;SDS011;48849;48.758;9.158;2023-02-10T03:53:51;35.80;;;23.25;;
2211;SDS011;48849;48.758;9.158;2023-02-10T03:56:19;37.83;;;24.40;;
2211;SDS011;48849;48.758;9.158;2023-02-10T03:58:46;40.17;;;23.58;;
2211;SDS011;48849;48.758;9.158;2023-02-10T04:01:14;37.40;;;24.73;;
2211;SDS011;48849;48.758;9.158;2023-02-10T04:03:42;35.17;;;23.20;;
2211;SDS011;48849;48.758;9.158;2023-02-10T04:06:09;37.33;;;23.73;;
2211;SDS011;48849;48.758;9.158;2023-02-10T04:08:36;34.22;;;23.42;;
2211;SDS011;48849;48.758;9.158;2023-02-10T04:11:04;35.05;;;22.48;;
2211;SDS011;48849;48.758;9.158;2023-02-10T04:13:34;34.90;;;23.30;;
2211;SDS011;48849;48.758;9.158;2023-02-10T04:16:01;34.10;;;22.77;;
2211;SDS011;48849;48.758;9.158;2023-02-10T04:18:29;37.50;;;22.63;;
2211;SDS011;48849;48.758;9.158;2023-02-10T04:20:56;35.92;;;23.02;;
2211;SDS011;48849;48.758;9.158;2023-02-10T04:23:23;35.45;;;23.70;;
2211;SDS011;48849;48.758;9.158;2023-02-10T04:25:50;40.33;;;25.23;;
2211;SDS011;48849;48.758;9.158;2023-02-10T04:28:17;35.20;;;21.75;;
2211;SDS011;48849;48.758;9.158;2023-02-10T04:30:45;34.53;;;22.88;;
2211;SDS011;48849;48.758;9.158;2023-02-10T04:33:12;34.55;;;23.52;;
2211;SDS011;48849;48.758;9.158;2023-02-10T04:35:39;37.67;;;22.58;;
2211;SDS011;48849;48.758;9.158;2023-02-10T04:38:05;33.35;;;22.33;;
2211;SDS011;48849;48.758;9.158;2023-02-10T04:40:32;38.05;;;22.13;;
2211;SDS011;48849;48.758;9.158;2023-02-10T04:42:59;42.95;;;24.10;;
2211;SDS011;48849;48.758;9.158;2023-02-10T04:45:25;34.00;;;21.88;;
2211;SDS011;48849;48.758;9.158;2023-02-10T04:47:53;33.92;;;22.05;;
2211;SDS011;48849;48.758;9.158;2023-02-10T04:50:20;35.22;;;22.73;;
2211;SDS011;48849;48.758;9.158;2023-02-10T04:52:47;34.78;;;22.42;;
2211;SDS011;48849;48.758;9.158;2023-02-10T04:55:13;29.20;;;20.75;;
2211;SDS011;48849;48.758;9.158;2023-02-10T04:57:40;31.90;;;20.88;;
2211;SDS011;48849;48.758;9.158;2023-02-10T05:00:07;34.95;;;22.50;;
2211;SDS011;48849;48.758;9.158;2023-02-10T05:02:34;33.03;;;21.73;;
2211;SDS011;48849;48.758;9.158;2023-02-10T05:05:02;30.35;;;20.63;;
2211;SDS011;48849;48.758;9.158;2023-02-10T05:07:30;34.95;;;22.45;;
2211;SDS011;48849;48.758;9.158;2023-02-10T05:09:57;29.25;;;20.05;;
2211;SDS011;48849;48.758;9.158;2023-02-10T05:12:24;33.38;;;20.70;;
2211;SDS011;48849;48.758;9.158;2023-02-10T05:14:50;28.02;;;19.38;;
2211;SDS011;48849;48.758;9.158;2023-02-10T05:17:17;30.40;;;20.58;;
2211;SDS011;48849;48.758;9.158;2023-02-10T05:19:44;34.13;;;21.77;;
2211;SDS011;48849;48.758;9.158;2023-02-10T05:22:12;31.17;;;21.48;;
2211;SDS011;48849;48.758;9.158;2023-02-10T05:24:38;32.45;;;20.55;;
2211;SDS011;48849;48.758;9.158;2023-02-10T05:27:05;28.15;;;20.13;;
2211;SDS011;48849;48.758;9.158;2023-02-10T05:29:32;33.28;;;21.08;;
2211;SDS011;48849;48.758;9.158;2023-02-10T05:31:58;33.38;;;20.80;;
2211;SDS011;48849;48.758;9.158;2023-02-10T05:34:25;28.48;;;20.38;;
2211;SDS011;48849;48.758;9.158;2023-02-10T05:36:52;28.25;;;20.80;;
2211;SDS011;48849;48.758;9.158;2023-02-10T05:39:20;30.20;;;20.05;;
2211;SDS011;48849;48.758;9.158;2023-02-10T05:41:49;27.50;;;19.38;;
2211;SDS011;48849;48.758;9.158;2023-02-10T05:44:16;34.45;;;22.75;;
2211;SDS011;48849;48.758;9.158;2023-02-10T05:46:43;30.60;;;21.35;;
2211;SDS011;48849;48.758;9.158;2023-02-10T05:49:10;34.13;;;20.73;;
2211;SDS011;48849;48.758;9.158;2023-02-10T05:51:37;31.38;;;21.30;;
2211;SDS011;48849;48.758;9.158;2023-02-10T05:54:04;30.10;;;20.05;;
2211;SDS011;48849;48.758;9.158;2023-02-10T05:56:32;34.13;;;22.05;;
2211;SDS011;48849;48.758;9.158;2023-02-10T05:58:59;32.08;;;20.63;;
2211;SDS011;48849;48.758;9.158;2023-02-10T06:01:26;31.67;;;21.05;;
2211;SDS011;48849;48.758;9.158;2023-02-10T06:03:53;29.42;;;20.65;;
2211;SDS011;48849;48.758;9.158;2023-02-10T06:06:20;33.65;;;20.15;;
2211;SDS011;48849;48.758;9.158;2023-02-10T06:08:47;30.35;;;20.90;;
2211;SDS011;48849;48.758;9.158;2023-02-10T06:11:14;35.63;;;21.98;;
2211;SDS011;48849;48.758;9.158;2023-02-10T06:13:42;31.63;;;20.75;;
2211;SDS011;48849;48.758;9.158;2023-02-10T06:16:09;31.15;;;20.55;;
2211;SDS011;48849;48.758;9.158;2023-02-10T06:18:36;31.50;;;20.15;;
2211;SDS011;48849;48.758;9.158;2023-02-10T06:21:03;32.33;;;21.73;;
2211;SDS011;48849;48.758;9.158;2023-02-10T06:23:30;34.60;;;21.52;;
2211;SDS011;48849;48.758;9.158;2023-02-10T06:25:57;31.95;;;20.33;;
2211;SDS011;48849;48.758;9.158;2023-02-10T06:28:24;32.45;;;21.25;;
2211;SDS011;48849;48.758;9.158;2023-02-10T06:30:53;30.20;;;19.90;;
2211;SDS011;48849;48.758;9.158;2023-02-10T06:33:20;31.38;;;20.17;;
2211;SDS011;48849;48.758;9.158;2023-02-10T06:35:47;30.35;;;21.27;;
2211;SDS011;48849;48.758;9.158;2023-02-10T06:38:14;32.20;;;20.42;;
2211;SDS011;48849;48.758;9.158;2023-02-10T06:40:41;30.95;;;20.40;;
2211;SDS011;48849;48.758;9.158;2023-02-10T06:43:08;31.55;;;20.63;;
2211;SDS011;48849;48.758;9.158;2023-02-10T06:45:35;31.08;;;20.02;;
2211;SDS011;48849;48.758;9.158;2023-02-10T06:48:03;31.83;;;22.85;;
2211;SDS011;48849;48.758;9.158;2023-02-10T06:50:30;29.17;;;20.33;;
2211;SDS011;48849;48.758;9.158;2023-02-10T06:52:57;34.05;;;22.10;;
2211;SDS011;48849;48.758;9.158;2023-02-10T06:55:23;30.15;;;21.40;;
2211;SDS011;48849;48.758;9.158;2023-02-10T06:57:50;35.05;;;21.38;;
2211;SDS011;48849;48.758;9.158;2023-02-10T07:00:17;32.33;;;22.08;;
2211;SDS011;48849;48.758;9.158;2023-02-10T07:02:44;31.52;;;19.45;;
2211;SDS011;48849;48.758;9.158;2023-02-10T07:05:11;32.38;;;21.45;;
2211;SDS011;48849;48.758;9.158;2023-02-10T07:07:38;32.58;;;20.70;;
2211;SDS011;48849;48.758;9.158;2023-02-10T07:10:05;31.15;;;21.23;;
2211;SDS011;48849;48.758;9.158;2023-02-10T07:12:33;29.17;;;19.85;;
2211;SDS011;48849;48.758;9.158;2023-02-10T07:15:00;34.15;;;21.98;;
2211;SDS011;48849;48.758;9.158;2023-02-10T07:17:26;31.20;;;21.75;;
2211;SDS011;48849;48.758;9.158;2023-02-10T07:19:53;29.75;;;21.02;;
2211;SDS011;48849;48.758;9.158;2023-02-10T07:22:21;33.60;;;21.67;;
2211;SDS011;48849;48.758;9.158;2023-02-10T07:24:48;31.85;;;21.10;;
2211;SDS011;48849;48.758;9.158;2023-02-10T07:27:14;31.92;;;21.90;;
2211;SDS011;48849;48.758;9.158;2023-02-10T07:29:41;34.88;;;21.67;;
2211;SDS011;48849;48.758;9.158;2023-02-10T07:32:08;31.77;;;20.73;;
2211;SDS011;48849;48.758;9.158;2023-02-10T07:34:34;34.30;;;21.85;;
2211;SDS011;48849;48.758;9.158;2023-02-10T07:37:01;36.53;;;22.67;;
2211;SDS011;48849;48.758;9.158;2023-02-10T07:39:29;32.78;;;21.23;;
2211;SDS011;48849;48.758;9.158;2023-02-10T07:41:56;29.30;;;20.75;;
2211;SDS011;48849;48.758;9.158;2023-02-10T07:44:23;33.58;;;21.73;;
2211;SDS011;48849;48.758;9.158;2023-02-10T07:46:50;31.95;;;22.40;;
2211;SDS011;48849;48.758;9.158;2023-02-10T07:49:18;32.03;;;22.15;;
2211;SDS011;48849;48.758;9.158;2023-02-10T07:51:44;36.47;;;21.90;;
2211;SDS011;48849;48.758;9.158;2023-02-10T07:54:11;37.80;;;22.85;;
2211;SDS011;48849;48.758;9.158;2023-02-10T07:56:39;34.47;;;22.15;;
2211;SDS011;48849;48.758;9.158;2023-02-10T07:59:06;39.37;;;24.90;;
2211;SDS011;48849;48.758;9.158;2023-02-10T08:01:32;35.53;;;22.92;;
2211;SDS011;48849;48.758;9.158;2023-02-10T08:04:01;30.05;;;21.92;;
2211;SDS011;48849;48.758;9.158;2023-02-10T08:06:28;33.78;;;21.48;;
2211;SDS011;48849;48.758;9.158;2023-02-10T08:08:55;34.88;;;22.85;;
2211;SDS011;48849;48.758;9.158;2023-02-10T08:11:21;38.22;;;23.08;;
2211;SDS011;48849;48.758;9.158;2023-02-10T08:13:49;38.13;;;25.23;;
2211;SDS011;48849;48.758;9.158;2023-02-10T08:16:16;38.55;;;22.83;;
2211;SDS011;48849;48.758;9.158;2023-02-10T08:18:43;35.10;;;22.15;;
2211;SDS011;48849;48.758;9.158;2023-02-10T08:21:09;33.75;;;24.80;;
2211;SDS011;48849;48.758;9.158;2023-02-10T08:23:36;31.30;;;22.85;;
2211;SDS011;48849;48.758;9.158;2023-02-10T08:26:04;34.75;;;23.63;;
2211;SDS011;48849;48.758;9.158;2023-02-10T08:28:31;37.38;;;23.88;;
2211;SDS011;48849;48.758;9.158;2023-02-10T08:31:00;37.30;;;23.63;;
2211;SDS011;48849;48.758;9.158;2023-02-10T08:33:28;34.78;;;24.77;;
2211;SDS011;48849;48.758;9.158;2023-02-10T08:35:55;38.97;;;24.65;;
2211;SDS011;48849;48.758;9.158;2023-02-10T08:38:22;35.15;;;24.42;;
2211;SDS011;48849;48.758;9.158;2023-02-10T08:40:53;38.88;;;26.13;;
2211;SDS011;48849;48.758;9.158;2023-02-10T08:43:23;34.42;;;23.02;;
2211;SDS011;48849;48.758;9.158;2023-02-10T08:45:50;35.65;;;23.50;;
2211;SDS011;48849;48.758;9.158;2023-02-10T08:48:21;34.15;;;23.05;;
2211;SDS011;48849;48.758;9.158;2023-02-10T08:50:48;33.78;;;22.58;;
2211;SDS011;48849;48.758;9.158;2023-02-10T08:53:15;33.13;;;22.10;;
2211;SDS011;48849;48.758;9.158;2023-02-10T08:55:42;35.28;;;24.10;;
2211;SDS011;48849;48.758;9.158;2023-02-10T08:58:09;34.95;;;23.92;;
2211;SDS011;48849;48.758;9.158;2023-02-10T09:00:36;33.85;;;23.20;;
2211;SDS011;48849;48.758;9.158;2023-02-10T09:03:03;31.30;;;23.05;;
2211;SDS011;48849;48.758;9.158;2023-02-10T09:05:31;40.22;;;25.80;;
2211;SDS011;48849;48.758;9.158;2023-02-10T09:08:01;37.15;;;24.83;;
2211;SDS011;48849;48.758;9.158;2023-02-10T09:10:29;35.80;;;24.33;;
2211;SDS011;48849;48.758;9.158;2023-02-10T09:12:55;37.42;;;23.58;;
2211;SDS011;48849;48.758;9.158;2023-02-10T09:15:22;38.30;;;23.05;;
2211;SDS011;48849;48.758;9.158;2023-02-10T09:17:49;31.15;;;22.30;;
2211;SDS011;48849;48.758;9.158;2023-02-10T09:20:15;41.30;;;24.27;;
2211;SDS011;48849;48.758;9.158;2023-02-10T09:22:44;29.98;;;21.45;;
2211;SDS011;48849;48.758;9.158;2023-02-10T09:25:12;34.40;;;23.83;;
2211;SDS011;48849;48.758;9.158;2023-02-10T09:27:39;166.30;;;32.22;;
2211;SDS011;48849;48.758;9.158;2023-02-10T09:30:06;38.72;;;23.30;;
2211;SDS011;48849;48.758;9.158;2023-02-10T09:32:33;30.52;;;21.33;;
2211;SDS011;48849;48.758;9.158;2023-02-10T09:35:00;36.95;;;22.08;;
2211;SDS011;48849;48.758;9.158;2023-02-10T09:37:26;29.90;;;21.80;;
2211;SDS011;48849;48.758;9.158;2023-02-10T09:39:55;35.42;;;22.63;;
2211;SDS011;48849;48.758;9.158;2023-02-10T09:42:23;33.33;;;23.23;;
2211;SDS011;48849;48.758;9.158;2023-02-10T09:44:55;37.65;;;23.33;;
2211;SDS011;48849;48.758;9.158;2023-02-10T09:47:30;35.95;;;22.70;;
2211;SDS011;48849;48.758;9.158;2023-02-10T09:50:21;32.15;;;23.60;;
2211;SDS011;48849;48.758;9.158;2023-02-10T09:53:11;32.50;;;23.15;;
2211;SDS011;48849;48.758;9.158;2023-02-10T09:55:43;36.05;;;24.08;;
2211;SDS011;48849;48.758;9.158;2023-02-10T09:58:18;33.95;;;23.48;;
2211;SDS011;48849;48.758;9.158;2023-02-10T10:00:52;32.67;;;22.83;;
2211;SDS011;48849;48.758;9.158;2023-02-10T10:03:24;34.22;;;22.88;;
2211;SDS011;48849;48.758;9.158;2023-02-10T10:05:57;37.40;;;22.70;;
2211;SDS011;48849;48.758;9.158;2023-02-10T10:08:30;37.55;;;24.02;;
2211;SDS011;48849;48.758;9.158;2023-02-10T10:11:09;31.73;;;22.02;;
2211;SDS011;48849;48.758;9.158;2023-02-10T10:13:45;43.33;;;24.88;;
2211;SDS011;48849;48.758;9.158;2023-02-10T10:16:13;33.92;;;22.50;;
2211;SDS011;48849;48.758;9.158;2023-02-10T10:19:01;38.70;;;23.33;;
2211;SDS011;48849;48.758;9.158;2023-02-10T10:21:35;38.47;;;23.98;;
2211;SDS011;48849;48.758;9.158;2023-02-10T10:24:13;37.53;;;23.52;;
2211;SDS011;48849;48.758;9.158;2023-02-10T10:26:58;36.67;;;24.88;;
2211;SDS011;48849;48.758;9.158;2023-02-10T10:29:39;35.00;;;22.75;;
2211;SDS011;48849;48.758;9.158;2023-02-10T10:32:15;36.88;;;24.30;;
2211;SDS011;48849;48.758;9.158;2023-02-10T10:34:45;37.88;;;23.80;;
2211;SDS011;48849;48.758;9.158;2023-02-10T10:37:18;31.95;;;23.30;;
2211;SDS011;48849;48.758;9.158;2023-02-10T10:39:48;34.88;;;24.20;;
2211;SDS011;48849;48.758;9.158;2023-02-10T10:42:20;39.03;;;23.13;;
2211;SDS011;48849;48.758;9.158;2023-02-10T10:44:52;38.72;;;23.85;;
2211;SDS011;48849;48.758;9.158;2023-02-10T10:47:27;31.48;;;22.67;;
2211;SDS011;48849;48.758;9.158;2023-02-10T10:50:02;34.08;;;23.00;;
2211;SDS011;48849;48.758;9.158;2023-02-10T10:52:30;35.47;;;22.52;;
2211;SDS011;48849;48.758;9.158;2023-02-10T10:55:01;34.17;;;22.80;;
2211;SDS011;48849;48.758;9.158;2023-02-10T10:57:32;35.97;;;23.67;;
2211;SDS011;48849;48.758;9.158;2023-02-10T11:00:03;36.63;;;23.10;;
2211;SDS011;48849;48.758;9.158;2023-02-10T11:02:39;30.30;;;21.88;;
2211;SDS011;48849;48.758;9.158;2023-02-10T11:05:16;34.45;;;22.40;;
2211;SDS011;48849;48.758;9.158;2023-02-10T11:07:46;34.22;;;21.77;;
2211;SDS011;48849;48.758;9.158;2023-02-10T11:12:51;32.30;;;20.33;;
2211;SDS011;48849;48.758;9.158;2023-02-10T11:15:30;31.90;;;21.67;;
2211;SDS011;48849;48.758;9.158;2023-02-10T11:18:01;31.20;;;21.83;;
2211;SDS011;48849;48.758;9.158;2023-02-10T11:20:31;36.53;;;20.48;;
2211;SDS011;48849;48.758;9.158;2023-02-10T11:22:59;26.80;;;19.17;;
2211;SDS011;48849;48.758;9.158;2023-02-10T11:25:29;31.00;;;21.15;;
2211;SDS011;48849;48.758;9.158;2023-02-10T11:27:59;31.50;;;20.77;;
2211;SDS011;48849;48.758;9.158;2023-02-10T11:30:28;28.20;;;20.65;;
2211;SDS011;48849;48.758;9.158;2023-02-10T11:32:57;28.00;;;20.40;;
2211;SDS011;48849;48.758;9.158;2023-02-10T11:35:25;29.10;;;19.50;;
2211;SDS011;48849;48.758;9.158;2023-02-10T11:37:53;30.38;;;22.20;;
2211;SDS011;48849;48.758;9.158;2023-02-10T11:40:23;36.05;;;22.95;;
2211;SDS011;48849;48.758;9.158;2023-02-10T11:42:52;33.50;;;24.45;;
2211;SDS011;48849;48.758;9.158;2023-02-10T11:45:23;37.83;;;23.38;;
2211;SDS011;48849;48.758;9.158;2023-02-10T11:47:59;38.67;;;23.98;;
2211;SDS011;48849;48.758;9.158;2023-02-10T11:50:27;37.10;;;24.23;;
2211;SDS011;48849;48.758;9.158;2023-02-10T11:52:56;38.75;;;23.45;;
2211;SDS011;48849;48.758;9.158;2023-02-10T11:55:24;40.83;;;27.25;;
2211;SDS011;48849;48.758;9.158;2023-02-10T11:57:58;36.22;;;24.13;;
2211;SDS011;48849;48.758;9.158;2023-02-10T12:01:01;39.92;;;25.80;;
2211;SDS011;48849;48.758;9.158;2023-02-10T12:03:42;40.13;;;26.65;;
2211;SDS011;48849;48.758;9.158;2023-02-10T12:06:18;38.03;;;24.75;;
2211;SDS011;48849;48.758;9.158;2023-02-10T12:08:51;38.25;;;25.48;;
2211;SDS011;48849;48.758;9.158;2023-02-10T12:11:26;39.03;;;25.90;;
2211;SDS011;48849;48.758;9.158;2023-02-10T12:14:01;35.20;;;24.70;;
2211;SDS011;48849;48.758;9.158;2023-02-10T12:16:34;37.40;;;23.92;;
2211;SDS011;48849;48.758;9.158;2023-02-10T12:19:08;34.05;;;25.55;;
2211;SDS011;48849;48.758;9.158;2023-02-10T12:21:59;34.90;;;24.02;;
2211;SDS011;48849;48.758;9.158;2023-02-10T12:24:38;35.47;;;24.08;;
2211;SDS011;48849;48.758;9.158;2023-02-10T12:27:22;35.17;;;22.67;;
2211;SDS011;48849;48.758;9.158;2023-02-10T12:29:59;37.67;;;22.83;;
2211;SDS011;48849;48.758;9.158;2023-02-10T12:32:36;35.75;;;22.52;;
2211;SDS011;48849;48.758;9.158;2023-02-10T12:35:18;33.90;;;24.08;;
2211;SDS011;48849;48.758;9.158;2023-02-10T12:37:55;31.17;;;23.00;;
2211;SDS011;48849;48.758;9.158;2023-02-10T12:40:35;36.35;;;23.83;;
2211;SDS011;48849;48.758;9.158;2023-02-10T12:43:11;34.58;;;23.70;;
2211;SDS011;48849;48.758;9.158;2023-02-10T12:45:54;34.30;;;22.83;;
2211;SDS011;48849;48.758;9.158;2023-02-10T12:48:30;32.97;;;24.27;;
2211;SDS011;48849;48.758;9.158;2023-02-10T12:51:13;29.10;;;21.70;;
2211;SDS011;48849;48.758;9.158;2023-02-10T12:53:57;35.97;;;23.80;;
2211;SDS011;48849;48.758;9.158;2023-02-10T12:56:29;30.42;;;22.58;;
2211;SDS011;48849;48.758;9.158;2023-02-10T12:59:00;31.50;;;22.85;;
2211;SDS011;48849;48.758;9.158;2023-02-10T13:01:31;32.47;;;22.95;;
2211;SDS011;48849;48.758;9.158;2023-02-10T13:04:05;31.65;;;22.67;;
2211;SDS011;48849;48.758;9.158;2023-02-10T13:06:40;34.35;;;22.42;;
2211;SDS011;48849;48.758;9.158;2023-02-10T13:09:12;32.03;;;22.95;;
2211;SDS011;48849;48.758;9.158;2023-02-10T13:11:48;31.00;;;21.45;;
2211;SDS011;48849;48.758;9.158;2023-02-10T13:14:29;30.77;;;22.65;;
2211;SDS011;48849;48.758;9.158;2023-02-10T13:16:57;37.00;;;22.17;;
2211;SDS011;48849;48.758;9.158;2023-02-10T13:19:30;31.95;;;21.88;;
2211;SDS011;48849;48.758;9.158;2023-02-10T13:22:07;31.23;;;22.52;;
2211;SDS011;48849;48.758;9.158;2023-02-10T13:24:39;32.95;;;21.15;;
2211;SDS011;48849;48.758;9.158;2023-02-10T13:27:19;32.60;;;21.92;;
2211;SDS011;48849;48.758;9.158;2023-02-10T13:29:54;32.55;;;21.85;;
2211;SDS011;48849;48.758;9.158;2023-02-10T13:35:14;28.65;;;21.13;;
2211;SDS011;48849;48.758;9.158;2023-02-10T13:37:46;32.20;;;20.50;;
2211;SDS011;48849;48.758;9.158;2023-02-10T13:40:17;28.30;;;20.80;;
2211;SDS011;48849;48.758;9.158;2023-02-10T13:42:46;28.40;;;21.17;;
2211;SDS011;48849;48.758;9.158;2023-02-10T13:45:18;31.92;;;21.25;;
2211;SDS011;48849;48.758;9.158;2023-02-10T13:47:48;40.53;;;22.27;;
2211;SDS011;48849;48.758;9.158;2023-02-10T13:50:23;28.05;;;20.77;;
2211;SDS011;48849;48.758;9.158;2023-02-10T13:52:53;32.00;;;20.63;;
2211;SDS011;48849;48.758;9.158;2023-02-10T13:55:37;29.27;;;21.00;;
2211;SDS011;48849;48.758;9.158;2023-02-10T14:00:56;31.08;;;20.63;;
2211;SDS011;48849;48.758;9.158;2023-02-10T14:03:24;28.38;;;19.85;;
2211;SDS011;48849;48.758;9.158;2023-02-10T14:05:55;31.40;;;20.58;;
2211;SDS011;48849;48.758;9.158;2023-02-10T14:08:32;30.05;;;20.08;;
2211;SDS011;48849;48.758;9.158;2023-02-10T14:11:01;28.48;;;19.48;;
2211;SDS011;48849;48.758;9.158;2023-02-10T14:13:30;29.83;;;20.17;;
2211;SDS011;48849;48.758;9.158;2023-02-10T14:16:00;30.90;;;21.00;;
2211;SDS011;48849;48.758;9.158;2023-02-10T14:18:29;28.88;;;20.27;;
2211;SDS011;48849;48.758;9.158;2023-02-10T14:20:59;27.58;;;19.25;;
2211;SDS011;48849;48.758;9.158;2023-02-10T14:23:29;26.85;;;18.95;;
2211;SDS011;48849;48.758;9.158;2023-02-10T14:25:58;24.88;;;17.98;;
2211;SDS011;48849;48.758;9.158;2023-02-10T14:28:27;27.05;;;18.27;;
2211;SDS011;48849;48.758;9.158;2023-02-10T14:30:57;28.83;;;19.05;;
2211;SDS011;48849;48.758;9.158;2023-02-10T14:33:27;27.10;;;18.00;;
2211;SDS011;48849;48.758;9.158;2023-02-10T14:35:55;27.17;;;18.48;;
2211;SDS011;48849;48.758;9.158;2023-02-10T14:38:26;27.10;;;19.23;;
2211;SDS011;48849;48.758;9.158;2023-02-10T14:40:54;26.60;;;18.88;;
2211;SDS011;48849;48.758;9.158;2023-02-10T14:43:24;28.85;;;19.95;;
2211;SDS011;48849;48.758;9.158;2023-02-10T14:45:52;26.33;;;19.13;;
2211;SDS011;48849;48.758;9.158;2023-02-10T14:48:20;26.73;;;19.77;;
2211;SDS011;48849;48.758;9.158;2023-02-10T14:51:01;29.92;;;18.75;;
2211;SDS011;48849;48.758;9.158;2023-02-10T14:53:33;36.63;;;20.27;;
2211;SDS011;48849;48.758;9.158;2023-02-10T14:56:05;27.58;;;18.67;;
2211;SDS011;48849;48.758;9.158;2023-02-10T14:58:31;25.00;;;18.02;;
2211;SDS011;48849;48.758;9.158;2023-02-10T15:01:01;25.77;;;18.67;;
2211;SDS011;48849;48.758;9.158;2023-02-10T15:03:31;24.40;;;17.95;;
2211;SDS011;48849;48.758;9.158;2023-02-10T15:05:59;27.05;;;18.98;;